Time;durP1;ratioP1;P1;durP2;ratioP2;P2;SDS_P1;SDS_P2;PMS_P1;PMS_P2;Temp;Humidity;BMP_temperature;BMP_pressure;BME280_temperature;BME280_humidity;BME280_pressure;Samples;Min_cycle;Max_cycle;Signal;HPM_P1;HPM_P2
2023/11/14 00:00:34;;;;;;;1.20;0.70;;;;;;;-145.69;70.92;52264.16;5115858;28;20205;-83
2023/11/14 00:03:03;;;;;;;2.92;0.55;;;;;;;-145.69;71.12;52256.25;5116802;28;20201;-83
2023/11/14 00:05:34;;;;;;;1.13;0.70;;;;;;;-145.69;70.86;52246.34;5117032;28;20197;-83
2023/11/14 00:08:00;;;;;;;0.88;0.57;;;;;;;-145.69;70.85;52230.50;5116505;28;20237;-83
2023/11/14 00:10:27;;;;;;;1.05;0.65;;;;;;;-145.69;71.19;52274.06;5116699;28;20217;-82
2023/11/14 00:12:54;;;;;;;1.80;0.70;;;;;;;-145.69;71.24;52250.31;5116180;28;20573;-82
2023/11/14 00:15:20;;;;;;;2.75;0.80;;;;;;;-145.69;70.46;52208.72;5116002;28;20270;-83
2023/11/14 00:17:48;;;;;;;0.55;0.50;;;;;;;-145.69;70.65;52250.31;5116367;28;20201;-83
2023/11/14 00:20:16;;;;;;;1.45;0.70;;;;;;;-145.69;70.40;52270.13;5116480;28;20201;-83
2023/11/14 00:22:43;;;;;;;3.20;0.80;;;;;;;-145.69;70.24;52236.44;5116320;28;20202;-83
2023/11/14 00:25:10;;;;;;;3.38;0.80;;;;;;;-145.69;70.59;52236.44;5116265;28;20205;-84
2023/11/14 00:27:37;;;;;;;1.80;0.75;;;;;;;-145.69;70.17;52238.44;5116442;28;20255;-83
2023/11/14 00:30:06;;;;;;;1.05;0.70;;;;;;;-145.69;69.94;52230.50;5116179;28;20208;-84
2023/11/14 00:32:32;;;;;;;1.70;0.80;;;;;;;-145.69;69.49;52282.00;5116267;28;20221;-83
2023/11/14 00:34:59;;;;;;;2.08;0.60;;;;;;;-145.69;69.75;52250.31;5116132;28;20567;-83
2023/11/14 00:37:27;;;;;;;2.13;0.80;;;;;;;-145.69;69.22;52240.41;5115942;28;20197;-83
2023/11/14 00:39:54;;;;;;;1.23;0.57;;;;;;;-145.69;69.66;52222.59;5116086;28;20293;-82
2023/11/14 00:42:20;;;;;;;2.30;0.60;;;;;;;-145.69;69.29;52260.22;5115115;28;20604;-83
2023/11/14 00:44:47;;;;;;;1.17;0.60;;;;;;;-145.69;69.36;52258.22;5115961;28;20201;-83
2023/11/14 00:47:14;;;;;;;1.42;0.70;;;;;;;-145.69;69.44;52278.03;5115930;28;20199;-83
2023/11/14 00:49:40;;;;;;;2.67;0.85;;;;;;;-145.69;69.41;52270.13;5115844;28;20250;-82
2023/11/14 00:52:07;;;;;;;2.55;0.80;;;;;;;-145.69;70.23;52250.31;5111371;28;20212;-84
2023/11/14 00:54:35;;;;;;;2.53;0.85;;;;;;;-145.69;69.71;52232.50;5115726;28;20228;-83
2023/11/14 00:57:01;;;;;;;2.20;0.70;;;;;;;-145.69;69.86;52228.53;5115517;28;20203;-84
2023/11/14 00:59:28;;;;;;;2.13;1.40;;;;;;;-145.69;69.79;52262.19;5115412;28;20209;-83
2023/11/14 01:01:58;;;;;;;3.53;0.70;;;;;;;-145.69;69.39;52258.22;5115715;28;20205;-84
2023/11/14 01:04:25;;;;;;;2.30;0.60;;;;;;;-145.69;69.85;52248.34;5115627;28;20209;-83
2023/11/14 01:06:51;;;;;;;0.60;0.60;;;;;;;-145.69;69.39;52256.25;5115534;28;20229;-83
2023/11/14 01:09:18;;;;;;;3.33;1.00;;;;;;;-145.69;69.46;52262.19;5115279;28;20208;-83
2023/11/14 01:11:46;;;;;;;1.77;0.60;;;;;;;-145.69;69.74;52252.28;5115083;28;20751;-83
2023/11/14 01:14:13;;;;;;;2.30;1.17;;;;;;;-145.69;69.84;52258.22;5114208;28;20227;-82
2023/11/14 01:16:40;;;;;;;1.08;0.63;;;;;;;-145.69;69.67;52266.16;5114690;28;20652;-83
2023/11/14 01:19:06;;;;;;;2.83;0.63;;;;;;;-145.69;69.60;52270.13;5115430;28;20193;-84
2023/11/14 01:21:33;;;;;;;1.15;0.52;;;;;;;-145.69;69.71;52268.13;5115161;28;20216;-83
2023/11/14 01:23:59;;;;;;;1.35;0.50;;;;;;;-145.69;69.45;52262.19;5115317;28;20229;-83
2023/11/14 01:26:32;;;;;;;2.25;0.77;;;;;;;-145.69;69.11;52256.25;5115054;28;20678;-82
2023/11/14 01:29:00;;;;;;;1.15;0.60;;;;;;;-145.69;69.73;52244.38;5115204;28;20206;-83
2023/11/14 01:31:28;;;;;;;2.08;0.70;;;;;;;-145.69;69.69;52244.38;5115039;28;20292;-83
2023/11/14 01:33:55;;;;;;;1.52;0.73;;;;;;;-145.69;69.93;52242.38;5114909;28;20221;-82
2023/11/14 01:36:22;;;;;;;0.70;0.70;;;;;;;-145.69;69.75;52276.06;5114919;28;20229;-82
2023/11/14 01:38:48;;;;;;;1.02;0.50;;;;;;;-145.69;70.39;52254.28;5114743;28;20201;-82
2023/11/14 01:41:15;;;;;;;0.45;0.38;;;;;;;-145.69;70.76;52287.94;5114901;28;20206;-83
2023/11/14 01:43:42;;;;;;;0.40;0.40;;;;;;;-145.69;69.93;52252.28;5114446;28;20189;-83
2023/11/14 01:46:12;;;;;;;1.38;0.55;;;;;;;-145.69;70.50;52238.44;5114772;28;20246;-83
2023/11/14 01:48:38;;;;;;;0.57;0.45;;;;;;;-145.69;69.87;52276.06;5114504;28;20664;-82
2023/11/14 01:51:05;;;;;;;1.13;0.55;;;;;;;-145.69;70.50;52285.97;5114632;28;20209;-83
2023/11/14 01:53:33;;;;;;;1.25;0.50;;;;;;;-145.69;70.05;52240.41;5113542;28;20225;-83
2023/11/14 01:56:00;;;;;;;3.13;0.50;;;;;;;-145.69;69.95;52246.34;5114439;28;20691;-81
2023/11/14 01:58:26;;;;;;;1.33;0.50;;;;;;;-145.69;69.50;52289.91;5114208;28;20197;-82
2023/11/14 02:00:53;;;;;;;1.40;0.60;;;;;;;-145.69;69.88;52325.56;5114167;28;20197;-82
2023/11/14 02:03:21;;;;;;;2.15;0.60;;;;;;;-145.69;69.22;52276.06;5114128;28;20657;-85
2023/11/14 02:05:48;;;;;;;2.83;0.95;;;;;;;-145.69;69.43;52270.13;5114145;27;20201;-84
2023/11/14 02:08:16;;;;;;;2.97;0.80;;;;;;;-145.69;69.96;52283.97;5114077;28;20234;-82
2023/11/14 02:10:43;;;;;;;2.17;0.95;;;;;;;-145.69;69.39;52309.72;5114238;28;20290;-83
2023/11/14 02:13:10;;;;;;;3.42;0.88;;;;;;;-145.69;69.20;52278.03;5113875;28;20221;-84
2023/11/14 02:15:36;;;;;;;2.38;0.90;;;;;;;-145.69;69.34;52254.28;5114216;28;20197;-83
2023/11/14 02:18:03;;;;;;;2.25;0.88;;;;;;;-145.69;69.26;52297.84;5113580;28;20605;-83
2023/11/14 02:20:31;;;;;;;2.50;0.77;;;;;;;-145.69;69.46;52299.81;5114172;28;20204;-83
2023/11/14 02:22:59;;;;;;;2.17;0.60;;;;;;;-145.69;69.60;52274.06;5114132;28;20654;-84
2023/11/14 02:25:26;;;;;;;2.50;0.90;;;;;;;-145.69;69.69;52270.13;5114060;28;20259;-83
2023/11/14 02:27:53;;;;;;;2.85;0.70;;;;;;;-145.69;69.24;52285.97;5113976;28;20288;-84
2023/11/14 02:30:20;;;;;;;2.40;0.73;;;;;;;-145.69;69.15;52293.88;5113844;28;20213;-83
2023/11/14 02:32:46;;;;;;;2.35;0.65;;;;;;;-145.69;68.77;52268.13;5113082;28;20236;-84
2023/11/14 02:35:13;;;;;;;1.88;0.70;;;;;;;-145.69;68.78;52258.22;5113769;28;20258;-83
2023/11/14 02:37:39;;;;;;;3.85;0.77;;;;;;;-145.69;69.33;52262.19;5113906;28;20215;-83
2023/11/14 02:40:08;;;;;;;1.37;0.80;;;;;;;-145.69;68.72;52250.31;5113715;28;20197;-84
2023/11/14 02:42:36;;;;;;;1.98;0.80;;;;;;;-145.69;68.54;52272.09;5113514;28;20202;-85
2023/11/14 02:45:06;;;;;;;2.67;0.90;;;;;;;-145.69;68.54;52278.03;5113798;28;20233;-84
2023/11/14 02:47:33;;;;;;;1.55;0.80;;;;;;;-145.69;68.68;52254.28;5107517;28;20616;-82
2023/11/14 02:50:11;;;;;;;3.30;0.90;;;;;;;-145.69;68.17;52254.28;5113658;28;20201;-84
2023/11/14 02:52:38;;;;;;;3.50;0.90;;;;;;;-145.69;68.02;52270.13;5113628;28;20212;-83
2023/11/14 02:55:05;;;;;;;3.33;1.05;;;;;;;-145.69;68.43;52256.25;5112992;28;20229;-82
2023/11/14 02:57:32;;;;;;;1.55;0.70;;;;;;;-145.69;68.45;52260.22;5113499;28;20208;-83
2023/11/14 03:00:00;;;;;;;4.32;0.80;;;;;;;-145.69;68.05;52260.22;5113600;28;20556;-83
2023/11/14 03:02:26;;;;;;;4.70;0.80;;;;;;;-145.69;68.28;52264.16;5113400;28;20609;-83
2023/11/14 03:04:53;;;;;;;2.72;0.70;;;;;;;-145.69;68.39;52282.00;5113056;28;20202;-83
2023/11/14 03:07:19;;;;;;;4.13;0.97;;;;;;;-145.69;68.45;52246.34;5113117;28;20707;-83
2023/11/14 03:09:46;;;;;;;2.47;0.88;;;;;;;-145.69;68.46;52252.28;5113463;28;20193;-83
2023/11/14 03:12:13;;;;;;;3.70;0.70;;;;;;;-145.69;68.92;52270.13;5112894;28;20194;-84
2023/11/14 03:14:39;;;;;;;1.60;0.80;;;;;;;-145.69;68.90;52266.16;5113174;28;20313;-83
2023/11/14 03:17:08;;;;;;;3.70;1.00;;;;;;;-145.69;68.42;52252.28;5113557;28;20233;-84
2023/11/14 03:19:39;;;;;;;2.83;0.90;;;;;;;-145.69;68.66;52238.44;5113484;28;20208;-83
2023/11/14 03:22:05;;;;;;;2.47;0.90;;;;;;;-145.69;68.45;52252.28;5113337;28;20209;-84
2023/11/14 03:24:32;;;;;;;2.80;0.93;;;;;;;-145.69;68.61;52293.88;5112869;28;20193;-82
2023/11/14 03:26:58;;;;;;;2.30;0.90;;;;;;;-145.69;68.59;52270.13;5112876;28;20587;-84
2023/11/14 03:29:25;;;;;;;2.08;0.90;;;;;;;-145.69;68.49;52280.00;5113366;28;20296;-84
2023/11/14 03:31:51;;;;;;;1.27;0.87;;;;;;;-145.69;68.68;52268.13;5113138;28;20200;-84
2023/11/14 03:34:19;;;;;;;1.97;1.10;;;;;;;-145.69;68.40;52287.94;5113372;28;20232;-84
2023/11/14 03:36:46;;;;;;;2.92;0.77;;;;;;;-145.69;68.75;52278.03;5113563;28;20285;-85
2023/11/14 03:39:13;;;;;;;2.45;0.68;;;;;;;-145.69;68.81;52270.13;5113018;28;20208;-84
2023/11/14 03:41:40;;;;;;;2.72;0.80;;;;;;;-145.69;68.34;52254.28;5113024;28;20198;-83
2023/11/14 03:44:08;;;;;;;0.90;0.80;;;;;;;-145.69;68.74;52230.50;5113383;28;20220;-84
2023/11/14 03:46:34;;;;;;;2.10;1.00;;;;;;;-145.69;68.65;52287.94;5113203;28;20323;-84
2023/11/14 03:49:01;;;;;;;2.40;0.70;;;;;;;-145.69;68.82;52287.94;5113093;28;20556;-84
2023/11/14 03:51:29;;;;;;;4.78;0.75;;;;;;;-145.69;68.90;52226.53;5113101;28;20198;-84
2023/11/14 03:53:55;;;;;;;1.30;0.73;;;;;;;-145.69;68.74;52278.03;5112883;28;20270;-84
2023/11/14 03:56:22;;;;;;;1.80;0.57;;;;;;;-145.69;68.70;52282.00;5113138;28;20201;-84
2023/11/14 03:58:49;;;;;;;2.70;1.00;;;;;;;-145.69;68.98;52301.81;5113066;28;20201;-84
2023/11/14 04:01:16;;;;;;;1.63;0.70;;;;;;;-145.69;69.04;52252.28;5113085;28;20254;-83
2023/11/14 04:03:43;;;;;;;0.70;0.50;;;;;;;-145.69;69.00;52280.00;5113070;28;20209;-84
2023/11/14 04:06:10;;;;;;;1.25;0.63;;;;;;;-145.69;69.35;52280.00;5112303;28;20193;-84
2023/11/14 04:08:39;;;;;;;1.07;0.80;;;;;;;-145.69;69.41;52278.03;5113220;28;20660;-84
2023/11/14 04:11:06;;;;;;;5.05;0.82;;;;;;;-145.69;68.98;52242.38;5112753;28;20354;-84
2023/11/14 04:13:33;;;;;;;1.37;0.60;;;;;;;-145.69;68.81;52282.00;5112727;28;20217;-83
2023/11/14 04:16:00;;;;;;;4.65;1.02;;;;;;;-145.69;68.67;52274.06;5112912;28;20292;-83
2023/11/14 04:18:27;;;;;;;2.90;0.80;;;;;;;-145.69;68.89;52264.16;5116490;28;20208;-83
2023/11/14 04:20:54;;;;;;;3.00;0.80;;;;;;;-145.69;68.96;52282.00;5116464;28;20563;-83
2023/11/14 04:23:21;;;;;;;2.50;0.70;;;;;;;-145.69;69.21;52258.22;5116012;28;20560;-83
2023/11/14 04:25:49;;;;;;;2.03;0.70;;;;;;;-145.69;69.01;52285.97;5116255;28;20200;-83
2023/11/14 04:28:16;;;;;;;2.13;0.80;;;;;;;-145.69;69.14;52258.22;5116549;28;20193;-84
2023/11/14 04:30:42;;;;;;;2.73;0.73;;;;;;;-145.69;68.64;52289.91;5116306;28;20198;-84
2023/11/14 04:33:09;;;;;;;5.80;0.83;;;;;;;-145.69;68.20;52266.16;5116423;28;20198;-84
2023/11/14 04:35:35;;;;;;;4.10;0.80;;;;;;;-145.69;67.80;52305.75;5116046;28;20229;-84
2023/11/14 04:38:05;;;;;;;1.00;0.77;;;;;;;-145.69;68.57;52283.97;5116663;28;20203;-83
2023/11/14 04:40:31;;;;;;;6.40;1.05;;;;;;;-145.69;68.07;52266.16;5115717;28;20208;-84
2023/11/14 04:42:59;;;;;;;3.20;1.20;;;;;;;-145.69;68.14;52283.97;5116036;28;20197;-84
2023/11/14 04:45:26;;;;;;;2.57;0.90;;;;;;;-145.69;68.20;52309.72;5111664;28;20789;-82
2023/11/14 04:47:52;;;;;;;3.23;1.40;;;;;;;-145.69;67.33;52258.22;5115391;28;20197;-83
2023/11/14 04:50:20;;;;;;;6.97;1.40;;;;;;;-145.69;67.50;52345.38;5115888;28;20537;-82
2023/11/14 04:52:47;;;;;;;1.33;0.90;;;;;;;-145.69;67.14;52289.91;5115907;28;20529;-84
2023/11/14 04:55:13;;;;;;;3.90;1.10;;;;;;;-145.69;66.87;52266.16;5115450;28;20225;-83
2023/11/14 04:57:40;;;;;;;6.63;1.33;;;;;;;-145.69;67.25;52309.72;5115962;28;20198;-83
2023/11/14 05:00:09;;;;;;;4.03;0.90;;;;;;;-145.69;66.94;52282.00;5115927;28;20220;-83
2023/11/14 05:02:36;;;;;;;2.90;0.93;;;;;;;-145.69;67.58;52307.75;5115590;28;20193;-84
2023/11/14 05:05:03;;;;;;;6.82;1.02;;;;;;;-145.69;69.08;52315.66;5114879;28;20459;-83
2023/11/14 05:07:30;;;;;;;5.30;1.00;;;;;;;-145.69;67.56;52305.75;5115134;28;20255;-83
2023/11/14 05:09:59;;;;;;;4.97;1.07;;;;;;;-145.69;67.18;52283.97;5115806;28;20234;-83
2023/11/14 05:12:26;;;;;;;6.10;1.23;;;;;;;-145.69;67.63;52262.19;5115754;28;20205;-84
2023/11/14 05:14:52;;;;;;;4.73;1.03;;;;;;;-145.69;66.53;52285.97;5115438;28;20225;-84
2023/11/14 05:17:20;;;;;;;4.30;1.17;;;;;;;-145.69;66.60;52270.13;5114922;28;20209;-83
2023/11/14 05:19:47;;;;;;;5.53;1.00;;;;;;;-145.69;66.93;52299.81;5115673;28;20193;-83
2023/11/14 05:22:13;;;;;;;3.80;1.17;;;;;;;-145.69;66.18;52305.75;5115134;28;20694;-83
2023/11/14 05:24:43;;;;;;;4.50;1.07;;;;;;;-145.69;66.41;52268.13;5115207;28;20699;-83
2023/11/14 05:27:10;;;;;;;1.57;1.10;;;;;;;-145.69;66.55;52291.91;5115303;28;20193;-82
2023/11/14 05:29:36;;;;;;;1.57;0.70;;;;;;;-145.69;66.42;52297.84;5115059;28;20198;-83
2023/11/14 05:32:03;;;;;;;1.97;1.07;;;;;;;-145.69;66.99;52283.97;5115049;28;20296;-84
2023/11/14 05:34:31;;;;;;;3.30;1.23;;;;;;;-145.69;66.58;52285.97;5114989;28;20827;-84
2023/11/14 05:36:58;;;;;;;4.80;1.20;;;;;;;-145.69;66.41;52321.59;5115051;28;20208;-84
2023/11/14 05:39:24;;;;;;;8.07;1.10;;;;;;;-145.69;66.41;52313.69;5115012;28;20212;-84
2023/11/14 05:41:51;;;;;;;1.60;1.00;;;;;;;-145.69;66.56;52262.19;5114563;28;20205;-84
2023/11/14 05:44:20;;;;;;;6.43;1.10;;;;;;;-145.69;67.03;52297.84;5114841;28;20212;-84
2023/11/14 05:46:46;;;;;;;3.40;0.97;;;;;;;-145.69;66.93;52309.72;5114816;28;20548;-84
2023/11/14 05:49:13;;;;;;;3.93;1.10;;;;;;;-145.69;66.87;52289.91;5114627;28;20284;-84
2023/11/14 05:51:41;;;;;;;2.20;0.90;;;;;;;-145.69;67.08;52291.91;5114847;28;20201;-84
2023/11/14 05:54:09;;;;;;;4.40;0.97;;;;;;;-145.69;66.95;52309.72;5114252;28;20220;-84
2023/11/14 05:56:37;;;;;;;4.70;1.17;;;;;;;-145.69;66.57;52282.00;5113936;28;20731;-84
2023/11/14 05:59:06;;;;;;;2.45;0.88;;;;;;;-145.69;67.29;52301.81;5113717;28;20443;-83
2023/11/14 06:01:33;;;;;;;2.47;0.90;;;;;;;-145.69;66.34;52299.81;5115832;28;20679;-84
2023/11/14 06:03:59;;;;;;;3.93;1.10;;;;;;;-145.69;66.17;52309.72;5114502;28;20229;-84
2023/11/14 06:06:26;;;;;;;4.00;0.83;;;;;;;-145.69;66.53;52311.69;5114073;28;20225;-83
2023/11/14 06:08:54;;;;;;;5.90;1.10;;;;;;;-145.69;65.87;52317.66;5114479;28;20201;-83
2023/11/14 06:11:20;;;;;;;4.27;0.83;;;;;;;-145.69;66.16;52319.63;5114146;28;20225;-82
2023/11/14 06:13:56;;;;;;;3.53;0.90;;;;;;;-145.69;65.71;52293.88;5114319;28;20284;-82
2023/11/14 06:16:23;;;;;;;1.27;0.93;;;;;;;-145.69;65.70;52282.00;5114049;28;20224;-83
2023/11/14 06:18:49;;;;;;;1.40;0.87;;;;;;;-145.69;66.07;52337.44;5113873;28;20197;-85
2023/11/14 06:21:18;;;;;;;1.13;0.90;;;;;;;-145.69;66.83;52323.59;5115054;28;20233;-83
2023/11/14 06:23:45;;;;;;;1.70;0.90;;;;;;;-145.69;66.39;52301.81;5113343;28;20280;-83
2023/11/14 06:26:14;;;;;;;2.00;1.03;;;;;;;-145.69;65.67;52305.75;5113886;28;20300;-83
2023/11/14 06:28:43;;;;;;;2.30;0.83;;;;;;;-145.69;65.86;52299.81;5113880;28;20203;-82
2023/11/14 06:31:09;;;;;;;4.00;0.80;;;;;;;-145.69;65.69;52297.84;5114152;28;20246;-83
2023/11/14 06:33:36;;;;;;;5.40;0.90;;;;;;;-145.69;65.75;52313.69;5113694;28;20262;-83
2023/11/14 06:36:03;;;;;;;2.30;0.90;;;;;;;-145.69;65.51;52297.84;5113818;28;20268;-83
2023/11/14 06:38:29;;;;;;;1.63;0.60;;;;;;;-145.69;65.83;52317.66;5113681;28;20194;-82
2023/11/14 06:40:56;;;;;;;1.67;0.80;;;;;;;-145.69;67.09;52268.13;5112918;28;20517;-82
2023/11/14 06:43:24;;;;;;;2.03;0.70;;;;;;;-145.69;66.28;52301.81;5113301;28;20533;-82
2023/11/14 06:45:50;;;;;;;2.17;0.70;;;;;;;-145.69;66.13;52323.59;5113253;28;20643;-82
2023/11/14 06:48:17;;;;;;;1.90;0.60;;;;;;;-145.69;66.16;52325.56;5113656;28;20201;-83
2023/11/14 06:50:45;;;;;;;1.83;0.70;;;;;;;-145.69;66.19;52305.75;5113482;28;20237;-82
2023/11/14 06:53:15;;;;;;;0.80;0.80;;;;;;;-145.69;66.08;52309.72;5113441;28;20201;-82
2023/11/14 06:55:42;;;;;;;1.77;0.80;;;;;;;-145.69;66.48;52274.06;5097677;28;20221;-82
2023/11/14 06:58:08;;;;;;;3.27;1.03;;;;;;;-145.69;66.73;52274.06;5093236;28;20204;-82
2023/11/14 07:00:36;;;;;;;0.90;0.60;;;;;;;-145.69;66.73;52309.72;5093190;28;20198;-82
2023/11/14 07:03:06;;;;;;;0.80;0.60;;;;;;;-145.69;66.28;52313.69;5093205;28;20230;-82
2023/11/14 07:05:32;;;;;;;2.47;1.00;;;;;;;-145.69;66.52;52295.84;5110368;28;20276;-82
2023/11/14 07:08:02;;;;;;;1.97;0.87;;;;;;;-145.69;66.54;52280.00;5112761;28;20584;-82
2023/11/14 07:10:30;;;;;;;5.70;0.80;;;;;;;-145.69;66.65;52276.06;5112892;28;20653;-82
2023/11/14 07:12:57;;;;;;;3.00;0.80;;;;;;;-145.69;67.07;52287.94;5113428;28;20208;-82
2023/11/14 07:15:23;;;;;;;3.83;0.80;;;;;;;-145.69;67.16;52293.88;5113178;28;20561;-82
2023/11/14 07:17:51;;;;;;;161.00;33.03;;;;;;;-145.69;66.82;52293.88;5113199;28;20209;-82
2023/11/14 07:20:20;;;;;;;63.53;13.67;;;;;;;-145.69;67.50;52307.75;5113041;28;20204;-82
2023/11/14 07:22:48;;;;;;;7.13;1.80;;;;;;;-145.69;67.67;52270.13;5113455;28;20284;-82
2023/11/14 07:25:18;;;;;;;5.90;1.40;;;;;;;-145.69;68.92;52293.88;5113360;28;20292;-82
2023/11/14 07:27:47;;;;;;;4.40;0.90;;;;;;;-145.69;68.68;52299.81;5112913;28;20197;-81
2023/11/14 07:30:13;;;;;;;3.60;1.30;;;;;;;-145.69;69.04;52309.72;5112612;28;20702;-81
2023/11/14 07:32:40;;;;;;;2.27;0.90;;;;;;;-145.69;69.17;52327.53;5113039;28;20197;-82
2023/11/14 07:35:10;;;;;;;2.63;0.80;;;;;;;-145.69;69.02;52321.59;5112249;28;20224;-82
2023/11/14 07:37:37;;;;;;;2.83;1.27;;;;;;;-145.69;68.57;52317.66;5112662;28;20201;-83
2023/11/14 07:40:07;;;;;;;4.70;1.30;;;;;;;-145.69;68.53;52293.88;5113041;28;20288;-82
2023/11/14 07:42:33;;;;;;;2.77;1.33;;;;;;;-145.69;67.28;52291.91;5113682;28;20197;-83
2023/11/14 07:45:00;;;;;;;5.00;1.67;;;;;;;-145.69;67.70;52297.84;5113072;28;20205;-82
2023/11/14 07:47:26;;;;;;;5.63;1.60;;;;;;;-145.69;67.75;52293.88;5113041;28;20205;-83
2023/11/14 07:49:53;;;;;;;3.23;1.87;;;;;;;-145.69;67.70;52297.84;5112868;28;20202;-82
2023/11/14 07:52:21;;;;;;;5.35;1.67;;;;;;;-145.69;69.16;52274.06;5112784;28;21077;-82
2023/11/14 07:54:49;;;;;;;4.50;1.20;;;;;;;-145.69;67.10;52305.75;5117066;28;20634;-82
2023/11/14 07:57:18;;;;;;;2.17;0.90;;;;;;;-145.69;66.62;52250.31;5116966;28;20580;-82
2023/11/14 07:59:54;;;;;;;2.83;1.27;;;;;;;-145.69;64.99;52283.97;5116824;28;20627;-83
2023/11/14 08:02:20;;;;;;;1.73;0.68;;;;;;;-145.69;63.79;52295.84;5117130;28;20197;-82
2023/11/14 08:04:53;;;;;;;3.17;1.67;;;;;;;-145.69;62.91;52287.94;5116401;28;20204;-82
2023/11/14 08:07:22;;;;;;;2.80;1.00;;;;;;;-145.69;62.37;52274.06;5115886;28;20257;-83
2023/11/14 08:09:49;;;;;;;1.77;1.20;;;;;;;-145.69;60.88;52319.63;5116568;28;20253;-82
2023/11/14 08:12:15;;;;;;;1.30;0.83;;;;;;;-145.69;61.24;52299.81;5116171;28;20545;-80
2023/11/14 08:14:42;;;;;;;2.43;1.20;;;;;;;-145.69;60.59;52270.13;5115839;28;20204;-80
2023/11/14 08:17:09;;;;;;;4.20;1.10;;;;;;;-145.69;60.76;52258.22;5116419;28;20201;-81
2023/11/14 08:19:35;;;;;;;2.47;0.97;;;;;;;-145.69;60.89;52282.00;5116212;28;20197;-80
2023/11/14 08:22:06;;;;;;;2.13;0.80;;;;;;;-145.69;61.67;52301.81;5116341;28;20208;-80
2023/11/14 08:24:34;;;;;;;3.90;1.00;;;;;;;-145.69;60.71;52297.84;5116320;28;20197;-80
2023/11/14 08:27:01;;;;;;;4.10;1.10;;;;;;;-145.69;61.50;52278.03;5115864;28;20185;-80
2023/11/14 08:29:27;;;;;;;1.60;0.83;;;;;;;-145.69;61.14;52331.50;5116123;28;20699;-80
2023/11/14 08:31:58;;;;;;;35.60;12.70;;;;;;;-145.69;59.54;52282.00;5115924;28;20198;-80
2023/11/14 08:34:33;;;;;;;8.90;1.90;;;;;;;-145.69;60.61;52301.81;5116018;28;20203;-80
2023/11/14 08:37:00;;;;;;;8.83;2.13;;;;;;;-145.69;61.03;52262.19;5115415;28;20225;-80
2023/11/14 08:39:26;;;;;;;14.57;4.07;;;;;;;-145.69;57.96;52266.16;5115899;28;20236;-80
2023/11/14 08:41:57;;;;;;;101.90;31.30;;;;;;;-145.69;56.58;52323.59;5110781;28;20201;-79
2023/11/14 08:44:26;;;;;;;51.07;17.23;;;;;;;-145.69;56.74;52311.69;5115782;28;20201;-79
2023/11/14 08:46:52;;;;;;;32.80;11.40;;;;;;;-145.69;55.97;52266.16;5115730;28;20656;-80
2023/11/14 08:49:20;;;;;;;25.92;8.68;;;;;;;-145.69;56.17;52250.31;5115868;28;20193;-81
2023/11/14 08:51:47;;;;;;;8.63;2.90;;;;;;;-145.69;53.90;52297.84;5115402;28;20228;-80
2023/11/14 08:54:15;;;;;;;5.77;2.27;;;;;;;-145.69;54.11;52280.00;5115653;28;20201;-80
2023/11/14 08:56:42;;;;;;;5.50;1.40;;;;;;;-145.69;53.11;52238.44;5115768;28;20233;-80
2023/11/14 08:59:11;;;;;;;2.85;1.52;;;;;;;-145.69;52.90;52266.16;5115590;28;20656;-79
2023/11/14 09:01:38;;;;;;;2.15;1.00;;;;;;;-145.69;52.61;52272.09;5114671;28;20201;-80
2023/11/14 09:04:05;;;;;;;5.20;0.70;;;;;;;-145.69;51.68;52256.25;5115204;28;20255;-79
2023/11/14 09:06:32;;;;;;;2.30;1.00;;;;;;;-145.69;51.65;52254.28;5114837;28;20676;-81
2023/11/14 09:08:59;;;;;;;2.10;0.70;;;;;;;-145.69;51.38;52266.16;5114693;28;20197;-80
2023/11/14 09:11:35;;;;;;;2.83;0.90;;;;;;;-145.69;50.24;52248.34;5115499;28;20200;-79
2023/11/14 09:14:02;;;;;;;2.60;0.93;;;;;;;-145.69;50.47;52236.44;5114727;28;20584;-80
2023/11/14 09:16:30;;;;;;;1.70;0.80;;;;;;;-145.69;50.69;52200.81;5115020;28;20255;-80
2023/11/14 09:18:59;;;;;;;48.17;19.80;;;;;;;-145.69;50.85;52240.41;5114723;28;20197;-82
2023/11/14 09:21:26;;;;;;;76.75;30.25;;;;;;;-145.69;51.68;52228.53;5115289;28;20204;-81
2023/11/14 09:23:54;;;;;;;9.63;4.25;;;;;;;-145.69;51.48;52262.19;5114999;28;20585;-80
2023/11/14 09:26:21;;;;;;;8.80;3.75;;;;;;;-145.69;52.09;52262.19;5115140;28;20233;-80
2023/11/14 09:28:52;;;;;;;4.30;1.35;;;;;;;-145.69;51.86;52262.19;5115201;28;20308;-80
2023/11/14 09:31:21;;;;;;;4.28;1.40;;;;;;;-145.69;51.41;52230.50;5115146;28;20204;-81
2023/11/14 09:33:49;;;;;;;7.13;1.45;;;;;;;-145.69;51.33;52218.63;5115144;28;20212;-80
2023/11/14 09:36:16;;;;;;;5.82;1.38;;;;;;;-145.69;51.05;52268.13;5114702;28;20260;-81
2023/11/14 09:38:42;;;;;;;106.00;34.95;;;;;;;-145.69;50.90;52266.16;5114659;28;20198;-81
2023/11/14 09:41:09;;;;;;;90.38;37.85;;;;;;;-145.69;51.28;52230.50;5114764;28;20197;-80
2023/11/14 09:43:36;;;;;;;34.42;14.88;;;;;;;-145.69;51.89;52238.44;5114776;28;20189;-81
2023/11/14 09:46:03;;;;;;;28.20;12.35;;;;;;;-145.69;52.33;52226.53;5114254;28;20225;-81
2023/11/14 09:48:29;;;;;;;12.43;6.15;;;;;;;-145.69;51.76;52252.28;5114574;28;20208;-81
2023/11/14 09:50:57;;;;;;;8.57;4.38;;;;;;;-145.69;52.17;52244.38;5114374;28;20652;-80
2023/11/14 09:53:24;;;;;;;6.50;2.17;;;;;;;-145.69;51.93;52226.53;5114232;28;20233;-80
2023/11/14 09:55:53;;;;;;;3.92;1.52;;;;;;;-145.69;51.45;52234.47;5114148;28;20571;-80
2023/11/14 09:58:20;;;;;;;5.03;1.52;;;;;;;-145.69;51.86;52238.44;5114265;28;20203;-81
2023/11/14 10:00:47;;;;;;;2.72;1.00;;;;;;;-145.69;50.82;52222.59;5114339;27;20356;-81
2023/11/14 10:03:14;;;;;;;2.72;0.77;;;;;;;-145.69;51.40;52220.59;5114441;28;20205;-81
2023/11/14 10:05:41;;;;;;;3.80;1.25;;;;;;;-145.69;50.60;52236.44;5114371;28;20209;-80
2023/11/14 10:08:11;;;;;;;3.55;0.75;;;;;;;-145.69;51.04;52218.63;5113694;28;20260;-81
2023/11/14 10:10:38;;;;;;;5.80;0.80;;;;;;;-145.69;49.57;52248.34;5114295;28;20193;-81
2023/11/14 10:13:05;;;;;;;4.38;0.82;;;;;;;-145.69;50.28;52220.59;5113867;28;20251;-80
2023/11/14 10:15:32;;;;;;;1.77;0.90;;;;;;;-145.69;50.99;52202.78;5113491;28;20224;-81
2023/11/14 10:18:02;;;;;;;5.70;1.00;;;;;;;-145.69;50.98;52224.56;5114203;28;20297;-81
2023/11/14 10:20:37;;;;;;;6.35;1.20;;;;;;;-145.69;50.32;52198.81;5114181;28;20197;-81
2023/11/14 10:23:07;;;;;;;4.55;1.10;;;;;;;-145.69;50.62;52198.81;5114997;28;20197;-83
2023/11/14 10:25:36;;;;;;;1.63;0.70;;;;;;;-145.69;50.12;52244.38;5116539;28;20201;-81
2023/11/14 10:28:05;;;;;;;6.30;1.02;;;;;;;-145.69;50.70;52214.66;5114374;28;20207;-82
2023/11/14 10:30:45;;;;;;;3.30;1.00;;;;;;;-145.69;49.65;52228.53;5114207;28;20189;-82
2023/11/14 10:33:12;;;;;;;4.05;1.15;;;;;;;-145.69;49.27;52236.44;5116447;28;20204;-82
2023/11/14 10:35:41;;;;;;;6.82;1.10;;;;;;;-145.69;48.05;52208.72;5113345;28;20224;-80
2023/11/14 10:38:18;;;;;;;6.43;1.00;;;;;;;-145.69;47.83;52228.53;5113902;28;20250;-81
2023/11/14 10:40:47;;;;;;;7.53;1.02;;;;;;;-145.69;48.55;52200.81;5113288;28;20564;-80
2023/11/14 10:43:13;;;;;;;1.67;0.70;;;;;;;-145.69;47.74;52206.75;5111856;28;20201;-80
2023/11/14 10:45:40;;;;;;;2.53;0.82;;;;;;;-145.69;47.42;52224.56;5113575;28;20602;-81
2023/11/14 10:48:07;;;;;;;4.70;1.10;;;;;;;-145.69;48.32;52240.41;5113517;28;20201;-81
2023/11/14 10:50:34;;;;;;;7.93;0.98;;;;;;;-145.69;48.76;52216.66;5113477;28;20236;-81
2023/11/14 10:53:01;;;;;;;5.28;0.90;;;;;;;-145.69;48.87;52198.81;5113258;28;20202;-81
2023/11/14 10:55:29;;;;;;;7.40;1.10;;;;;;;-145.69;49.53;52220.59;5113387;28;20205;-81
2023/11/14 10:57:57;;;;;;;5.20;0.80;;;;;;;-145.69;48.19;52214.66;5113253;28;20679;-80
2023/11/14 11:00:24;;;;;;;5.00;1.08;;;;;;;-145.69;48.45;52206.75;5112855;28;20201;-80
2023/11/14 11:02:52;;;;;;;5.22;1.08;;;;;;;-145.69;48.57;52254.28;5113372;28;20622;-80
2023/11/14 11:05:20;;;;;;;3.28;1.13;;;;;;;-145.69;49.45;52238.44;5112808;28;20204;-81
2023/11/14 11:07:47;;;;;;;2.92;1.30;;;;;;;-145.69;49.42;52222.59;5113183;28;20229;-80
2023/11/14 11:10:14;;;;;;;5.57;1.10;;;;;;;-145.69;48.83;52182.97;5113115;28;20330;-81
2023/11/14 11:12:42;;;;;;;8.80;1.73;;;;;;;-145.69;48.36;52206.75;5113153;28;20197;-80
2023/11/14 11:15:11;;;;;;;2.80;1.10;;;;;;;-145.69;47.45;52210.72;5113263;28;20540;-80
2023/11/14 11:17:40;;;;;;;5.30;1.75;;;;;;;-145.69;47.01;52194.88;5112646;28;20232;-80